Overview Statistics Trail Chart Weather Telemetry Raw packets
 

This is the latest recevied weather packets stored in our database for station/object 4S6DRJ-13. If no packets are shown the sender has not sent any weather packets the latest 10 day(s).

<< 323 324 325 326 327 328 329 >>
Time Temp. Humidity Pressure Rain* Wind** Luminosity Snow
1787986878 30.56° C 75% 1010 hPa 0 mm 2.68 m/s, 179° 441 W/m² -
1787986816 30.56° C 76% 1010 hPa 0 mm 1.34 m/s, 336° 523 W/m² -
1787986755 30.56° C 76% 1009.9 hPa 0 mm 0.45 m/s, 310° 1134 W/m² -
1787986694 30.56° C 75% 1010 hPa 0 mm 1.34 m/s, 159° 1122 W/m² -
1787986633 30.56° C 76% 1010 hPa 0 mm 2.24 m/s, 132° 407 W/m² -
1787986572 30.56° C 75% 1010 hPa 0 mm 2.68 m/s, 264° 1131 W/m² -
1787986511 30.56° C 75% 1009.9 hPa 0 mm 2.68 m/s, 197° 946 W/m² -
1787986454 30.56° C 74% 1010.1 hPa 0 mm 1.34 m/s, 209° 1129 W/m² -
1787986389 30.56° C 75% 1010.1 hPa 0 mm 1.34 m/s, 311° 655 W/m² -
1787986328 30.56° C 75% 1010.1 hPa 0 mm 3.58 m/s, 247° 474 W/m² -
1787986267 30.56° C 75% 1010.1 hPa 0 mm 3.13 m/s, 293° 528 W/m² -
1787986206 30.56° C 75% 1010 hPa 0 mm 2.24 m/s, 338° 378 W/m² -
1787986145 30° C 75% 1009.9 hPa 0 mm 2.24 m/s, 322° 417 W/m² -
1787986084 30° C 75% 1010 hPa 0 mm 1.34 m/s, 188° 463 W/m² -
1787986023 30.56° C 75% 1010.2 hPa 0 mm 2.24 m/s, 71° 1134 W/m² -
1787985962 30.56° C 74% 1010.3 hPa 0 mm 2.68 m/s, 14° 984 W/m² -
1787985902 30.56° C 74% 1009.9 hPa 0 mm 2.68 m/s, 167° 1113 W/m² -
1787985840 30.56° C 74% 1009.9 hPa 0 mm 2.68 m/s, 283° 390 W/m² -
1787985779 30.56° C 74% 1010.2 hPa 0 mm 2.68 m/s, 268° 361 W/m² -
1787985718 30.56° C 75% 1010.1 hPa 0 mm 2.68 m/s, 292° 472 W/m² -
1787985657 30.56° C 75% 1010 hPa 0 mm 2.24 m/s, 332° 1134 W/m² -
1787985596 30.56° C 75% 1010.1 hPa 0 mm 2.68 m/s, 190° 1126 W/m² -
1787985535 30.56° C 75% 1010.3 hPa 0 mm 2.68 m/s, 186° 442 W/m² -
1787985474 30.56° C 74% 1010.1 hPa 0 mm 4.47 m/s, 290° 1111 W/m² -
1787985414 30.56° C 75% 1010.1 hPa 0 mm 4.02 m/s, 326° 558 W/m² -

* Rain latest hour (hover to see other rain measurements)
** Current wind speed in m/s (hover to see current wind gust speed)